createdAt,value
2022-08-11T05:49:01.201Z,18.41
2022-08-11T05:52:55.202Z,18.54
2022-08-11T05:56:18.329Z,18.56
2022-08-11T05:59:26.080Z,18.83
2022-08-11T06:02:29.971Z,18.97
2022-08-11T06:05:43.977Z,19.09
2022-08-11T06:12:56.120Z,19.74
2022-08-11T06:16:04.893Z,20.01
2022-08-11T06:19:10.552Z,20.15
2022-08-11T06:22:20.578Z,20.26
2022-08-11T06:25:30.734Z,20.27
2022-08-11T06:28:38.924Z,20.50
2022-08-11T06:31:42.284Z,20.73
2022-08-11T06:35:06.617Z,20.81
2022-08-11T06:38:57.762Z,20.81
2022-08-11T06:42:09.141Z,21.32
2022-08-11T06:46:08.121Z,21.52
2022-08-11T06:49:35.701Z,21.92
2022-08-11T06:52:41.709Z,22.20
2022-08-11T06:56:09.608Z,22.57
2022-08-11T06:59:32.432Z,22.69
2022-08-11T07:03:08.831Z,22.69
2022-08-11T07:06:50.931Z,22.95
2022-08-11T07:10:32.066Z,22.77
2022-08-11T07:13:58.540Z,22.95
2022-08-11T07:17:09.871Z,22.99
2022-08-11T07:20:51.770Z,23.18
2022-08-11T07:25:01.502Z,23.35
2022-08-11T13:38:19.498Z,28.75
2022-08-11T14:14:48.765Z,28.62
2022-08-11T14:28:22.127Z,28.68
2022-08-11T14:31:19.480Z,28.94
2022-08-11T14:34:45.011Z,28.43
2022-08-11T14:59:19.816Z,27.99
2022-08-11T15:07:29.599Z,27.91
2022-08-11T15:11:24.199Z,27.72
2022-08-11T15:15:11.890Z,27.79
2022-08-11T15:23:11.316Z,27.43
2022-08-11T15:46:48.635Z,27.39
2022-08-11T15:54:44.504Z,27.40
2022-08-11T15:59:10.657Z,27.32
2022-08-11T16:02:58.301Z,27.56
2022-08-11T16:06:23.134Z,27.70
2022-08-11T16:10:09.617Z,27.63
2022-08-11T16:14:09.600Z,27.53
2022-08-11T16:17:42.482Z,27.30
2022-08-11T16:26:38.768Z,27.18
2022-08-11T16:29:16.710Z,26.90
2022-08-11T16:32:44.668Z,26.85
2022-08-11T16:36:30.435Z,26.65
2022-08-11T16:40:16.230Z,26.67
2022-08-11T16:59:52.759Z,26.21
2022-08-11T17:07:47.775Z,26.12
2022-08-11T17:15:47.435Z,25.88
2022-08-11T17:40:04.294Z,25.61
2022-08-11T17:56:16.179Z,25.29
2022-08-11T18:03:59.421Z,25.01
2022-08-11T18:24:21.710Z,24.65
2022-08-11T18:27:55.209Z,24.57
2022-08-11T18:31:21.033Z,24.45
2022-08-11T18:34:51.351Z,24.35
